Collins, Iowa
Current Conditions -  °F | °C
As of 3:53 PM on Friday 24 Oct 2014 (Local Time) from KAMW Reporting Station
Scattered Clouds Scattered Clouds  
Wind Chill: 69°   Ceiling: Unl
Heat Index: 69°   Visibility: 7mi
Dew Point: 61°   Wind: 7mph
Humidity: 75%   Direction: 210°SSW
Pressure: 29.88"   Gusts: NA
Location:  41.9°N, 93.31°W
Report Text: KAMW 242053Z AUTO 21006KT 7SM SCT021 21/16 A2988 RMK AO2 SLP113 T02060161 56015
Loading
Personal Weather Stations






























Interactive Weather Map
Tropical Storm Tracking
New forecast layout! Learn more

10-Day Weather Forecast

Advertisements
Track Severe Weather on mobile